sensor_id;sensor_type;location;lat;lon;timestamp;P1;durP1;ratioP1;P2;durP2;ratioP2
42118;SDS011;27783;42.782;23.274;2022-12-07T00:01:06;41.30;;;24.52;;
42118;SDS011;27783;42.782;23.274;2022-12-07T00:03:40;38.50;;;22.45;;
42118;SDS011;27783;42.782;23.274;2022-12-07T00:06:07;42.72;;;25.50;;
42118;SDS011;27783;42.782;23.274;2022-12-07T00:08:34;43.53;;;24.40;;
42118;SDS011;27783;42.782;23.274;2022-12-07T00:11:04;39.80;;;22.35;;
42118;SDS011;27783;42.782;23.274;2022-12-07T00:13:35;33.63;;;24.15;;
42118;SDS011;27783;42.782;23.274;2022-12-07T00:16:03;41.83;;;24.60;;
42118;SDS011;27783;42.782;23.274;2022-12-07T00:18:32;48.38;;;27.33;;
42118;SDS011;27783;42.782;23.274;2022-12-07T00:21:06;84.63;;;46.83;;
42118;SDS011;27783;42.782;23.274;2022-12-07T00:23:34;194.07;;;133.75;;
42118;SDS011;27783;42.782;23.274;2022-12-07T00:26:05;50.55;;;28.77;;
42118;SDS011;27783;42.782;23.274;2022-12-07T00:28:32;84.22;;;52.28;;
42118;SDS011;27783;42.782;23.274;2022-12-07T00:30:59;190.48;;;111.57;;
42118;SDS011;27783;42.782;23.274;2022-12-07T00:33:27;184.70;;;119.40;;
42118;SDS011;27783;42.782;23.274;2022-12-07T00:35:58;64.47;;;38.00;;
42118;SDS011;27783;42.782;23.274;2022-12-07T00:38:27;65.65;;;41.70;;
42118;SDS011;27783;42.782;23.274;2022-12-07T00:40:56;41.72;;;25.05;;
42118;SDS011;27783;42.782;23.274;2022-12-07T00:43:27;52.38;;;32.65;;
42118;SDS011;27783;42.782;23.274;2022-12-07T00:45:53;45.17;;;28.45;;
42118;SDS011;27783;42.782;23.274;2022-12-07T00:48:19;41.20;;;24.55;;
42118;SDS011;27783;42.782;23.274;2022-12-07T00:50:46;276.33;;;188.73;;
42118;SDS011;27783;42.782;23.274;2022-12-07T00:53:12;129.85;;;81.25;;
42118;SDS011;27783;42.782;23.274;2022-12-07T00:55:41;110.22;;;64.28;;
42118;SDS011;27783;42.782;23.274;2022-12-07T00:58:27;138.73;;;83.47;;
42118;SDS011;27783;42.782;23.274;2022-12-07T01:00:54;69.85;;;39.53;;
42118;SDS011;27783;42.782;23.274;2022-12-07T01:03:27;59.25;;;40.10;;
42118;SDS011;27783;42.782;23.274;2022-12-07T01:05:53;55.00;;;33.33;;
42118;SDS011;27783;42.782;23.274;2022-12-07T01:08:21;57.00;;;30.35;;
42118;SDS011;27783;42.782;23.274;2022-12-07T01:10:47;54.20;;;27.58;;
42118;SDS011;27783;42.782;23.274;2022-12-07T01:13:14;54.90;;;32.43;;
42118;SDS011;27783;42.782;23.274;2022-12-07T01:15:42;62.80;;;34.88;;
42118;SDS011;27783;42.782;23.274;2022-12-07T01:18:35;108.00;;;63.95;;
42118;SDS011;27783;42.782;23.274;2022-12-07T01:21:12;68.38;;;40.83;;
42118;SDS011;27783;42.782;23.274;2022-12-07T01:23:40;58.22;;;35.33;;
42118;SDS011;27783;42.782;23.274;2022-12-07T01:26:11;45.78;;;28.00;;
42118;SDS011;27783;42.782;23.274;2022-12-07T01:28:39;52.00;;;31.52;;
42118;SDS011;27783;42.782;23.274;2022-12-07T01:31:07;39.38;;;24.55;;
42118;SDS011;27783;42.782;23.274;2022-12-07T01:33:41;39.80;;;23.45;;
42118;SDS011;27783;42.782;23.274;2022-12-07T01:38:59;113.65;;;75.32;;
42118;SDS011;27783;42.782;23.274;2022-12-07T01:41:28;79.57;;;51.30;;
42118;SDS011;27783;42.782;23.274;2022-12-07T01:47:22;46.90;;;27.75;;
42118;SDS011;27783;42.782;23.274;2022-12-07T01:49:48;36.40;;;22.85;;
42118;SDS011;27783;42.782;23.274;2022-12-07T01:52:25;54.67;;;31.27;;
42118;SDS011;27783;42.782;23.274;2022-12-07T01:55:02;79.60;;;45.03;;
42118;SDS011;27783;42.782;23.274;2022-12-07T01:57:41;129.43;;;74.63;;
42118;SDS011;27783;42.782;23.274;2022-12-07T02:00:11;70.45;;;41.05;;
42118;SDS011;27783;42.782;23.274;2022-12-07T02:02:43;82.80;;;50.45;;
42118;SDS011;27783;42.782;23.274;2022-12-07T02:05:12;131.93;;;85.03;;
42118;SDS011;27783;42.782;23.274;2022-12-07T02:07:39;121.47;;;78.65;;
42118;SDS011;27783;42.782;23.274;2022-12-07T02:12:43;52.45;;;30.67;;
42118;SDS011;27783;42.782;23.274;2022-12-07T02:15:11;120.75;;;64.68;;
42118;SDS011;27783;42.782;23.274;2022-12-07T02:17:51;120.53;;;69.28;;
42118;SDS011;27783;42.782;23.274;2022-12-07T02:20:55;84.45;;;47.13;;
42118;SDS011;27783;42.782;23.274;2022-12-07T02:26:51;52.33;;;30.88;;
42118;SDS011;27783;42.782;23.274;2022-12-07T02:29:34;54.92;;;29.88;;
42118;SDS011;27783;42.782;23.274;2022-12-07T02:35:02;42.53;;;26.27;;
42118;SDS011;27783;42.782;23.274;2022-12-07T02:37:48;42.65;;;26.83;;
42118;SDS011;27783;42.782;23.274;2022-12-07T02:40:20;42.22;;;26.42;;
42118;SDS011;27783;42.782;23.274;2022-12-07T02:42:57;44.40;;;26.63;;
42118;SDS011;27783;42.782;23.274;2022-12-07T02:45:30;57.95;;;32.53;;
42118;SDS011;27783;42.782;23.274;2022-12-07T02:47:57;57.63;;;35.03;;
42118;SDS011;27783;42.782;23.274;2022-12-07T02:50:26;106.47;;;62.08;;
42118;SDS011;27783;42.782;23.274;2022-12-07T02:52:52;72.53;;;41.33;;
42118;SDS011;27783;42.782;23.274;2022-12-07T02:55:19;73.35;;;42.20;;
42118;SDS011;27783;42.782;23.274;2022-12-07T02:58:00;75.03;;;44.30;;
42118;SDS011;27783;42.782;23.274;2022-12-07T03:00:28;67.07;;;38.15;;
42118;SDS011;27783;42.782;23.274;2022-12-07T03:03:04;64.03;;;35.63;;
42118;SDS011;27783;42.782;23.274;2022-12-07T03:09:15;58.20;;;27.58;;
42118;SDS011;27783;42.782;23.274;2022-12-07T03:11:47;246.90;;;135.70;;
42118;SDS011;27783;42.782;23.274;2022-12-07T03:14:50;226.35;;;146.13;;
42118;SDS011;27783;42.782;23.274;2022-12-07T03:17:25;233.88;;;139.32;;
42118;SDS011;27783;42.782;23.274;2022-12-07T03:19:56;87.85;;;53.95;;
42118;SDS011;27783;42.782;23.274;2022-12-07T03:22:27;55.17;;;32.45;;
42118;SDS011;27783;42.782;23.274;2022-12-07T03:25:03;54.25;;;33.28;;
42118;SDS011;27783;42.782;23.274;2022-12-07T03:27:41;67.60;;;45.40;;
42118;SDS011;27783;42.782;23.274;2022-12-07T03:30:23;54.33;;;33.65;;
42118;SDS011;27783;42.782;23.274;2022-12-07T03:36:04;58.88;;;33.83;;
42118;SDS011;27783;42.782;23.274;2022-12-07T03:39:26;49.22;;;29.83;;
42118;SDS011;27783;42.782;23.274;2022-12-07T03:41:48;62.40;;;37.33;;
42118;SDS011;27783;42.782;23.274;2022-12-07T03:44:14;55.45;;;33.08;;
42118;SDS011;27783;42.782;23.274;2022-12-07T03:46:42;52.90;;;34.72;;
42118;SDS011;27783;42.782;23.274;2022-12-07T03:49:50;69.28;;;43.80;;
42118;SDS011;27783;42.782;23.274;2022-12-07T03:53:03;85.68;;;52.08;;
42118;SDS011;27783;42.782;23.274;2022-12-07T03:55:44;62.53;;;34.90;;
42118;SDS011;27783;42.782;23.274;2022-12-07T03:58:16;102.43;;;66.88;;
42118;SDS011;27783;42.782;23.274;2022-12-07T04:00:45;133.02;;;84.63;;
42118;SDS011;27783;42.782;23.274;2022-12-07T04:03:14;163.20;;;106.05;;
42118;SDS011;27783;42.782;23.274;2022-12-07T04:05:39;105.22;;;68.85;;
42118;SDS011;27783;42.782;23.274;2022-12-07T04:08:06;94.05;;;54.30;;
42118;SDS011;27783;42.782;23.274;2022-12-07T04:10:33;77.55;;;49.72;;
42118;SDS011;27783;42.782;23.274;2022-12-07T04:13:00;69.57;;;38.88;;
42118;SDS011;27783;42.782;23.274;2022-12-07T04:15:26;66.03;;;39.33;;
42118;SDS011;27783;42.782;23.274;2022-12-07T04:17:53;66.00;;;41.58;;
42118;SDS011;27783;42.782;23.274;2022-12-07T04:20:20;52.00;;;32.38;;
42118;SDS011;27783;42.782;23.274;2022-12-07T04:22:47;51.17;;;28.38;;
42118;SDS011;27783;42.782;23.274;2022-12-07T04:25:13;59.28;;;32.08;;
42118;SDS011;27783;42.782;23.274;2022-12-07T04:27:38;62.80;;;40.95;;
42118;SDS011;27783;42.782;23.274;2022-12-07T04:30:05;51.67;;;30.13;;
42118;SDS011;27783;42.782;23.274;2022-12-07T04:32:31;47.38;;;29.95;;
42118;SDS011;27783;42.782;23.274;2022-12-07T04:34:56;50.25;;;33.85;;
42118;SDS011;27783;42.782;23.274;2022-12-07T04:37:23;47.63;;;28.73;;
42118;SDS011;27783;42.782;23.274;2022-12-07T04:39:49;379.67;;;255.85;;
42118;SDS011;27783;42.782;23.274;2022-12-07T04:42:15;372.90;;;209.02;;
42118;SDS011;27783;42.782;23.274;2022-12-07T04:44:41;279.60;;;197.95;;
42118;SDS011;27783;42.782;23.274;2022-12-07T04:47:06;426.40;;;305.33;;
42118;SDS011;27783;42.782;23.274;2022-12-07T04:49:33;69.03;;;39.42;;
42118;SDS011;27783;42.782;23.274;2022-12-07T04:51:58;59.97;;;35.07;;
42118;SDS011;27783;42.782;23.274;2022-12-07T04:54:25;57.47;;;33.80;;
42118;SDS011;27783;42.782;23.274;2022-12-07T04:56:51;58.63;;;32.75;;
42118;SDS011;27783;42.782;23.274;2022-12-07T04:59:18;50.47;;;30.50;;
42118;SDS011;27783;42.782;23.274;2022-12-07T05:01:44;59.70;;;36.30;;
42118;SDS011;27783;42.782;23.274;2022-12-07T05:04:10;52.33;;;30.00;;
42118;SDS011;27783;42.782;23.274;2022-12-07T05:06:36;53.80;;;28.63;;
42118;SDS011;27783;42.782;23.274;2022-12-07T05:09:03;53.75;;;29.63;;
42118;SDS011;27783;42.782;23.274;2022-12-07T05:11:29;58.25;;;33.50;;
42118;SDS011;27783;42.782;23.274;2022-12-07T05:14:07;57.30;;;34.00;;
42118;SDS011;27783;42.782;23.274;2022-12-07T05:16:35;60.22;;;35.88;;
42118;SDS011;27783;42.782;23.274;2022-12-07T05:19:01;52.10;;;32.30;;
42118;SDS011;27783;42.782;23.274;2022-12-07T05:21:27;48.35;;;30.58;;
42118;SDS011;27783;42.782;23.274;2022-12-07T05:23:52;53.88;;;30.92;;
42118;SDS011;27783;42.782;23.274;2022-12-07T05:26:17;68.03;;;37.38;;
42118;SDS011;27783;42.782;23.274;2022-12-07T05:28:43;85.65;;;46.95;;
42118;SDS011;27783;42.782;23.274;2022-12-07T05:31:09;83.00;;;47.92;;
42118;SDS011;27783;42.782;23.274;2022-12-07T05:33:34;94.93;;;52.78;;
42118;SDS011;27783;42.782;23.274;2022-12-07T05:35:59;107.53;;;63.22;;
42118;SDS011;27783;42.782;23.274;2022-12-07T05:38:30;83.82;;;46.78;;
42118;SDS011;27783;42.782;23.274;2022-12-07T05:41:02;101.40;;;60.15;;
42118;SDS011;27783;42.782;23.274;2022-12-07T05:43:29;114.45;;;64.97;;
42118;SDS011;27783;42.782;23.274;2022-12-07T05:45:55;96.50;;;55.05;;
42118;SDS011;27783;42.782;23.274;2022-12-07T05:48:20;89.20;;;50.95;;
42118;SDS011;27783;42.782;23.274;2022-12-07T05:50:49;37.30;;;24.23;;
42118;SDS011;27783;42.782;23.274;2022-12-07T05:53:15;42.88;;;23.55;;
42118;SDS011;27783;42.782;23.274;2022-12-07T05:55:40;39.60;;;24.42;;
42118;SDS011;27783;42.782;23.274;2022-12-07T05:58:06;51.10;;;27.98;;
42118;SDS011;27783;42.782;23.274;2022-12-07T06:00:50;57.53;;;30.23;;
42118;SDS011;27783;42.782;23.274;2022-12-07T06:03:15;115.05;;;61.17;;
42118;SDS011;27783;42.782;23.274;2022-12-07T06:05:40;124.88;;;63.25;;
42118;SDS011;27783;42.782;23.274;2022-12-07T06:08:06;108.03;;;54.63;;
42118;SDS011;27783;42.782;23.274;2022-12-07T06:10:32;85.80;;;48.85;;
42118;SDS011;27783;42.782;23.274;2022-12-07T06:12:57;78.30;;;44.80;;
42118;SDS011;27783;42.782;23.274;2022-12-07T06:15:23;60.90;;;35.53;;
42118;SDS011;27783;42.782;23.274;2022-12-07T06:17:48;65.97;;;36.05;;
42118;SDS011;27783;42.782;23.274;2022-12-07T06:20:13;64.20;;;37.50;;
42118;SDS011;27783;42.782;23.274;2022-12-07T06:22:39;63.75;;;38.28;;
42118;SDS011;27783;42.782;23.274;2022-12-07T06:25:05;65.53;;;38.80;;
42118;SDS011;27783;42.782;23.274;2022-12-07T06:27:31;50.63;;;29.45;;
42118;SDS011;27783;42.782;23.274;2022-12-07T06:29:57;49.47;;;24.35;;
42118;SDS011;27783;42.782;23.274;2022-12-07T06:32:23;42.42;;;24.92;;
42118;SDS011;27783;42.782;23.274;2022-12-07T06:34:49;49.35;;;25.85;;
42118;SDS011;27783;42.782;23.274;2022-12-07T06:37:14;44.30;;;24.02;;
42118;SDS011;27783;42.782;23.274;2022-12-07T06:39:39;42.63;;;24.27;;
42118;SDS011;27783;42.782;23.274;2022-12-07T06:42:05;41.80;;;22.85;;
42118;SDS011;27783;42.782;23.274;2022-12-07T06:44:30;46.92;;;25.55;;
42118;SDS011;27783;42.782;23.274;2022-12-07T06:46:56;52.40;;;25.80;;
42118;SDS011;27783;42.782;23.274;2022-12-07T06:49:21;52.85;;;29.40;;
42118;SDS011;27783;42.782;23.274;2022-12-07T06:51:47;54.75;;;27.13;;
42118;SDS011;27783;42.782;23.274;2022-12-07T06:54:13;47.97;;;25.50;;
42118;SDS011;27783;42.782;23.274;2022-12-07T06:56:39;53.17;;;29.25;;
42118;SDS011;27783;42.782;23.274;2022-12-07T06:59:05;58.63;;;28.95;;
42118;SDS011;27783;42.782;23.274;2022-12-07T07:01:31;61.75;;;31.10;;
42118;SDS011;27783;42.782;23.274;2022-12-07T07:03:57;53.50;;;29.10;;
42118;SDS011;27783;42.782;23.274;2022-12-07T07:06:23;60.08;;;29.88;;
42118;SDS011;27783;42.782;23.274;2022-12-07T07:08:49;56.78;;;33.08;;
42118;SDS011;27783;42.782;23.274;2022-12-07T07:11:14;59.25;;;30.42;;
42118;SDS011;27783;42.782;23.274;2022-12-07T07:13:40;56.72;;;30.40;;
42118;SDS011;27783;42.782;23.274;2022-12-07T07:16:06;63.17;;;32.95;;
42118;SDS011;27783;42.782;23.274;2022-12-07T07:18:32;61.38;;;34.28;;
42118;SDS011;27783;42.782;23.274;2022-12-07T07:20:57;63.22;;;35.88;;
42118;SDS011;27783;42.782;23.274;2022-12-07T07:23:23;68.05;;;38.85;;
42118;SDS011;27783;42.782;23.274;2022-12-07T07:25:49;72.57;;;42.75;;
42118;SDS011;27783;42.782;23.274;2022-12-07T07:28:15;86.47;;;47.60;;
42118;SDS011;27783;42.782;23.274;2022-12-07T07:30:41;88.30;;;50.43;;
42118;SDS011;27783;42.782;23.274;2022-12-07T07:33:07;94.45;;;56.25;;
42118;SDS011;27783;42.782;23.274;2022-12-07T07:35:34;100.25;;;58.60;;
42118;SDS011;27783;42.782;23.274;2022-12-07T07:38:00;106.40;;;62.33;;
42118;SDS011;27783;42.782;23.274;2022-12-07T07:40:26;98.15;;;57.10;;
42118;SDS011;27783;42.782;23.274;2022-12-07T07:42:53;99.57;;;57.38;;
42118;SDS011;27783;42.782;23.274;2022-12-07T07:45:19;105.07;;;60.92;;
42118;SDS011;27783;42.782;23.274;2022-12-07T07:47:46;110.53;;;59.83;;
42118;SDS011;27783;42.782;23.274;2022-12-07T07:50:11;109.32;;;61.75;;
42118;SDS011;27783;42.782;23.274;2022-12-07T07:52:37;112.35;;;68.93;;
42118;SDS011;27783;42.782;23.274;2022-12-07T07:55:03;104.55;;;61.13;;
42118;SDS011;27783;42.782;23.274;2022-12-07T07:57:28;104.10;;;60.88;;
42118;SDS011;27783;42.782;23.274;2022-12-07T07:59:54;97.78;;;56.75;;
42118;SDS011;27783;42.782;23.274;2022-12-07T08:02:20;97.03;;;54.05;;
42118;SDS011;27783;42.782;23.274;2022-12-07T08:04:46;81.50;;;45.25;;
42118;SDS011;27783;42.782;23.274;2022-12-07T08:07:12;82.50;;;44.92;;
42118;SDS011;27783;42.782;23.274;2022-12-07T08:09:38;76.15;;;46.42;;
42118;SDS011;27783;42.782;23.274;2022-12-07T08:12:04;73.60;;;43.40;;
42118;SDS011;27783;42.782;23.274;2022-12-07T08:14:29;72.45;;;41.80;;
42118;SDS011;27783;42.782;23.274;2022-12-07T08:16:55;69.03;;;42.25;;
42118;SDS011;27783;42.782;23.274;2022-12-07T08:19:21;69.75;;;39.45;;
42118;SDS011;27783;42.782;23.274;2022-12-07T08:21:47;65.30;;;39.60;;
42118;SDS011;27783;42.782;23.274;2022-12-07T08:24:13;69.68;;;41.35;;
42118;SDS011;27783;42.782;23.274;2022-12-07T08:26:38;65.45;;;36.25;;
42118;SDS011;27783;42.782;23.274;2022-12-07T08:29:04;66.45;;;37.33;;
42118;SDS011;27783;42.782;23.274;2022-12-07T08:31:29;60.92;;;34.25;;
42118;SDS011;27783;42.782;23.274;2022-12-07T08:33:55;63.92;;;37.05;;
42118;SDS011;27783;42.782;23.274;2022-12-07T08:36:20;58.25;;;35.40;;
42118;SDS011;27783;42.782;23.274;2022-12-07T08:38:49;50.35;;;33.47;;
42118;SDS011;27783;42.782;23.274;2022-12-07T08:41:15;55.15;;;32.55;;
42118;SDS011;27783;42.782;23.274;2022-12-07T08:43:40;52.88;;;32.78;;
42118;SDS011;27783;42.782;23.274;2022-12-07T08:49:11;49.35;;;30.83;;
42118;SDS011;27783;42.782;23.274;2022-12-07T08:51:40;46.08;;;31.42;;
42118;SDS011;27783;42.782;23.274;2022-12-07T08:54:07;52.92;;;35.65;;
42118;SDS011;27783;42.782;23.274;2022-12-07T08:56:35;59.60;;;37.85;;
42118;SDS011;27783;42.782;23.274;2022-12-07T08:59:01;53.17;;;34.08;;
42118;SDS011;27783;42.782;23.274;2022-12-07T09:01:26;52.80;;;35.38;;
42118;SDS011;27783;42.782;23.274;2022-12-07T09:03:53;53.13;;;34.15;;
42118;SDS011;27783;42.782;23.274;2022-12-07T09:06:18;48.63;;;34.00;;
42118;SDS011;27783;42.782;23.274;2022-12-07T09:08:46;53.00;;;33.17;;
42118;SDS011;27783;42.782;23.274;2022-12-07T09:11:13;41.00;;;28.77;;
42118;SDS011;27783;42.782;23.274;2022-12-07T09:13:39;45.35;;;30.55;;
42118;SDS011;27783;42.782;23.274;2022-12-07T09:16:04;40.63;;;28.73;;
42118;SDS011;27783;42.782;23.274;2022-12-07T09:18:30;33.17;;;24.38;;
42118;SDS011;27783;42.782;23.274;2022-12-07T09:20:55;32.80;;;25.45;;
42118;SDS011;27783;42.782;23.274;2022-12-07T09:23:21;33.42;;;23.63;;
42118;SDS011;27783;42.782;23.274;2022-12-07T09:25:46;36.08;;;23.35;;
42118;SDS011;27783;42.782;23.274;2022-12-07T09:28:12;38.65;;;25.42;;
42118;SDS011;27783;42.782;23.274;2022-12-07T09:30:37;42.50;;;28.35;;
42118;SDS011;27783;42.782;23.274;2022-12-07T09:33:03;43.75;;;29.80;;
42118;SDS011;27783;42.782;23.274;2022-12-07T09:35:28;58.38;;;46.80;;
42118;SDS011;27783;42.782;23.274;2022-12-07T09:37:54;40.85;;;27.98;;
42118;SDS011;27783;42.782;23.274;2022-12-07T09:40:20;35.50;;;27.08;;
42118;SDS011;27783;42.782;23.274;2022-12-07T09:42:49;41.25;;;29.45;;
42118;SDS011;27783;42.782;23.274;2022-12-07T09:45:21;37.85;;;28.90;;
42118;SDS011;27783;42.782;23.274;2022-12-07T09:47:59;44.30;;;28.98;;
42118;SDS011;27783;42.782;23.274;2022-12-07T09:50:26;52.58;;;29.45;;
42118;SDS011;27783;42.782;23.274;2022-12-07T09:52:52;40.88;;;28.48;;
42118;SDS011;27783;42.782;23.274;2022-12-07T09:55:31;38.45;;;28.35;;
42118;SDS011;27783;42.782;23.274;2022-12-07T09:57:58;39.38;;;28.20;;
42118;SDS011;27783;42.782;23.274;2022-12-07T10:00:24;39.10;;;30.63;;
42118;SDS011;27783;42.782;23.274;2022-12-07T10:05:23;41.58;;;31.08;;
42118;SDS011;27783;42.782;23.274;2022-12-07T10:07:51;47.30;;;30.98;;
42118;SDS011;27783;42.782;23.274;2022-12-07T10:10:24;44.78;;;29.83;;
42118;SDS011;27783;42.782;23.274;2022-12-07T10:12:53;41.90;;;28.38;;
42118;SDS011;27783;42.782;23.274;2022-12-07T10:15:19;42.43;;;30.63;;
42118;SDS011;27783;42.782;23.274;2022-12-07T10:17:48;41.72;;;31.10;;
42118;SDS011;27783;42.782;23.274;2022-12-07T10:20:19;43.88;;;29.98;;
42118;SDS011;27783;42.782;23.274;2022-12-07T10:22:57;43.58;;;28.88;;
42118;SDS011;27783;42.782;23.274;2022-12-07T10:28:00;53.38;;;31.92;;
42118;SDS011;27783;42.782;23.274;2022-12-07T10:33:27;43.10;;;32.13;;
42118;SDS011;27783;42.782;23.274;2022-12-07T10:35:56;48.72;;;30.52;;
42118;SDS011;27783;42.782;23.274;2022-12-07T10:38:22;46.60;;;31.02;;
42118;SDS011;27783;42.782;23.274;2022-12-07T10:41:05;41.63;;;31.67;;
42118;SDS011;27783;42.782;23.274;2022-12-07T10:43:32;44.97;;;33.92;;
42118;SDS011;27783;42.782;23.274;2022-12-07T10:57:47;36.70;;;29.08;;
42118;SDS011;27783;42.782;23.274;2022-12-07T11:00:21;37.40;;;29.80;;
42118;SDS011;27783;42.782;23.274;2022-12-07T11:05:44;34.47;;;25.70;;
42118;SDS011;27783;42.782;23.274;2022-12-07T11:16:26;29.23;;;23.08;;
42118;SDS011;27783;42.782;23.274;2022-12-07T11:22:18;33.28;;;26.60;;
42118;SDS011;27783;42.782;23.274;2022-12-07T11:25:01;34.85;;;24.50;;
42118;SDS011;27783;42.782;23.274;2022-12-07T11:30:27;30.65;;;23.73;;
42118;SDS011;27783;42.782;23.274;2022-12-07T11:33:22;29.08;;;24.55;;
42118;SDS011;27783;42.782;23.274;2022-12-07T11:38:41;30.38;;;22.75;;
42118;SDS011;27783;42.782;23.274;2022-12-07T11:41:11;30.15;;;22.40;;
42118;SDS011;27783;42.782;23.274;2022-12-07T11:43:41;26.23;;;23.02;;
42118;SDS011;27783;42.782;23.274;2022-12-07T11:46:10;23.42;;;21.02;;
42118;SDS011;27783;42.782;23.274;2022-12-07T11:48:43;29.85;;;21.92;;
42118;SDS011;27783;42.782;23.274;2022-12-07T11:51:14;28.38;;;23.88;;
42118;SDS011;27783;42.782;23.274;2022-12-07T11:56:15;31.17;;;22.95;;
42118;SDS011;27783;42.782;23.274;2022-12-07T12:17:43;29.67;;;23.80;;
42118;SDS011;27783;42.782;23.274;2022-12-07T12:25:47;25.80;;;21.45;;
42118;SDS011;27783;42.782;23.274;2022-12-07T12:28:29;23.70;;;21.17;;
42118;SDS011;27783;42.782;23.274;2022-12-07T12:33:50;30.33;;;21.48;;
42118;SDS011;27783;42.782;23.274;2022-12-07T12:36:19;23.05;;;20.40;;
42118;SDS011;27783;42.782;23.274;2022-12-07T12:41:50;28.15;;;22.23;;
42118;SDS011;27783;42.782;23.274;2022-12-07T12:47:37;32.50;;;25.58;;
42118;SDS011;27783;42.782;23.274;2022-12-07T12:50:15;40.22;;;34.53;;
42118;SDS011;27783;42.782;23.274;2022-12-07T12:57:33;33.45;;;23.67;;
42118;SDS011;27783;42.782;23.274;2022-12-07T13:00:01;44.47;;;32.40;;
42118;SDS011;27783;42.782;23.274;2022-12-07T13:02:53;40.42;;;29.67;;
42118;SDS011;27783;42.782;23.274;2022-12-07T13:05:21;53.78;;;38.80;;
42118;SDS011;27783;42.782;23.274;2022-12-07T13:07:50;55.78;;;41.45;;
42118;SDS011;27783;42.782;23.274;2022-12-07T13:12:57;43.28;;;30.27;;
42118;SDS011;27783;42.782;23.274;2022-12-07T13:18:48;25.48;;;19.73;;
42118;SDS011;27783;42.782;23.274;2022-12-07T13:23:36;22.50;;;19.75;;
42118;SDS011;27783;42.782;23.274;2022-12-07T13:26:18;25.35;;;18.65;;
42118;SDS011;27783;42.782;23.274;2022-12-07T13:28:48;22.90;;;19.27;;
42118;SDS011;27783;42.782;23.274;2022-12-07T13:34:04;21.02;;;18.65;;
42118;SDS011;27783;42.782;23.274;2022-12-07T13:36:50;29.63;;;19.75;;
42118;SDS011;27783;42.782;23.274;2022-12-07T13:39:18;24.90;;;20.23;;
42118;SDS011;27783;42.782;23.274;2022-12-07T13:41:44;22.45;;;19.40;;
42118;SDS011;27783;42.782;23.274;2022-12-07T13:44:16;28.42;;;19.33;;
42118;SDS011;27783;42.782;23.274;2022-12-07T13:49:24;23.38;;;20.58;;
42118;SDS011;27783;42.782;23.274;2022-12-07T13:51:52;31.08;;;20.98;;
42118;SDS011;27783;42.782;23.274;2022-12-07T13:54:19;24.77;;;20.30;;
42118;SDS011;27783;42.782;23.274;2022-12-07T13:56:49;25.30;;;20.00;;
42118;SDS011;27783;42.782;23.274;2022-12-07T13:59:20;47.90;;;33.38;;
42118;SDS011;27783;42.782;23.274;2022-12-07T14:01:48;53.70;;;34.92;;
42118;SDS011;27783;42.782;23.274;2022-12-07T14:06:49;46.83;;;35.10;;
42118;SDS011;27783;42.782;23.274;2022-12-07T14:09:17;40.95;;;28.45;;
42118;SDS011;27783;42.782;23.274;2022-12-07T14:11:47;35.58;;;28.15;;
42118;SDS011;27783;42.782;23.274;2022-12-07T14:14:15;43.58;;;36.55;;
42118;SDS011;27783;42.782;23.274;2022-12-07T14:16:43;46.60;;;31.75;;
42118;SDS011;27783;42.782;23.274;2022-12-07T14:19:40;32.95;;;23.73;;
42118;SDS011;27783;42.782;23.274;2022-12-07T14:22:22;42.67;;;29.00;;
42118;SDS011;27783;42.782;23.274;2022-12-07T14:27:57;32.67;;;20.10;;
42118;SDS011;27783;42.782;23.274;2022-12-07T14:30:26;31.20;;;23.10;;
42118;SDS011;27783;42.782;23.274;2022-12-07T14:32:54;31.25;;;21.95;;
42118;SDS011;27783;42.782;23.274;2022-12-07T14:35:23;43.08;;;24.10;;
42118;SDS011;27783;42.782;23.274;2022-12-07T14:37:49;38.97;;;25.25;;
42118;SDS011;27783;42.782;23.274;2022-12-07T14:40:16;108.53;;;75.82;;
42118;SDS011;27783;42.782;23.274;2022-12-07T14:42:44;132.07;;;89.68;;
42118;SDS011;27783;42.782;23.274;2022-12-07T14:45:16;82.95;;;56.60;;
42118;SDS011;27783;42.782;23.274;2022-12-07T14:47:43;95.75;;;68.97;;
42118;SDS011;27783;42.782;23.274;2022-12-07T14:50:14;78.30;;;53.80;;
42118;SDS011;27783;42.782;23.274;2022-12-07T14:52:42;55.42;;;35.92;;
42118;SDS011;27783;42.782;23.274;2022-12-07T14:55:14;58.15;;;34.83;;
42118;SDS011;27783;42.782;23.274;2022-12-07T14:57:45;40.05;;;25.23;;
42118;SDS011;27783;42.782;23.274;2022-12-07T15:00:14;42.97;;;24.38;;
42118;SDS011;27783;42.782;23.274;2022-12-07T15:02:42;50.35;;;25.52;;
42118;SDS011;27783;42.782;23.274;2022-12-07T15:05:08;40.75;;;26.38;;
42118;SDS011;27783;42.782;23.274;2022-12-07T15:07:34;41.28;;;24.80;;
42118;SDS011;27783;42.782;23.274;2022-12-07T15:10:00;40.30;;;26.85;;
42118;SDS011;27783;42.782;23.274;2022-12-07T15:12:25;37.33;;;26.77;;
42118;SDS011;27783;42.782;23.274;2022-12-07T15:14:50;47.85;;;29.38;;
42118;SDS011;27783;42.782;23.274;2022-12-07T15:17:16;48.47;;;28.05;;
42118;SDS011;27783;42.782;23.274;2022-12-07T15:19:41;91.20;;;56.53;;
42118;SDS011;27783;42.782;23.274;2022-12-07T15:22:08;45.78;;;29.70;;
42118;SDS011;27783;42.782;23.274;2022-12-07T15:27:01;64.28;;;36.88;;
42118;SDS011;27783;42.782;23.274;2022-12-07T15:29:29;219.93;;;112.03;;
42118;SDS011;27783;42.782;23.274;2022-12-07T15:31:54;187.50;;;102.55;;
42118;SDS011;27783;42.782;23.274;2022-12-07T15:34:23;181.70;;;91.47;;
42118;SDS011;27783;42.782;23.274;2022-12-07T15:36:54;53.38;;;29.38;;
42118;SDS011;27783;42.782;23.274;2022-12-07T15:39:20;30.92;;;22.27;;
42118;SDS011;27783;42.782;23.274;2022-12-07T15:41:46;64.38;;;35.33;;
42118;SDS011;27783;42.782;23.274;2022-12-07T15:44:13;82.57;;;42.88;;
42118;SDS011;27783;42.782;23.274;2022-12-07T15:46:59;49.83;;;29.15;;
42118;SDS011;27783;42.782;23.274;2022-12-07T15:49:25;49.55;;;25.27;;
42118;SDS011;27783;42.782;23.274;2022-12-07T15:54:24;39.28;;;23.15;;
42118;SDS011;27783;42.782;23.274;2022-12-07T15:56:58;165.63;;;91.97;;
42118;SDS011;27783;42.782;23.274;2022-12-07T15:59:25;179.05;;;101.50;;
42118;SDS011;27783;42.782;23.274;2022-12-07T16:01:54;115.75;;;68.70;;
42118;SDS011;27783;42.782;23.274;2022-12-07T16:06:47;215.57;;;135.40;;
42118;SDS011;27783;42.782;23.274;2022-12-07T16:09:12;106.13;;;65.93;;
42118;SDS011;27783;42.782;23.274;2022-12-07T16:11:38;148.07;;;84.53;;
42118;SDS011;27783;42.782;23.274;2022-12-07T16:14:03;181.90;;;114.07;;
42118;SDS011;27783;42.782;23.274;2022-12-07T16:16:30;341.90;;;209.27;;
42118;SDS011;27783;42.782;23.274;2022-12-07T16:18:55;224.63;;;133.50;;
42118;SDS011;27783;42.782;23.274;2022-12-07T16:21:23;178.52;;;104.40;;
42118;SDS011;27783;42.782;23.274;2022-12-07T16:23:48;285.08;;;176.10;;
42118;SDS011;27783;42.782;23.274;2022-12-07T16:26:15;360.50;;;250.40;;
42118;SDS011;27783;42.782;23.274;2022-12-07T16:28:43;327.92;;;225.80;;
42118;SDS011;27783;42.782;23.274;2022-12-07T16:31:10;322.15;;;216.93;;